Time;durP1;ratioP1;P1;durP2;ratioP2;P2;SDS_P1;SDS_P2;PMS_P1;PMS_P2;Temp;Humidity;BMP_temperature;BMP_pressure;BME280_temperature;BME280_humidity;BME280_pressure;Samples;Min_cycle;Max_cycle;Signal;HPM_P1;HPM_P2
2020/12/24 00:02:04;;;;;;;10.82;6.50;;;;;;;18.88;58.51;100531.72;4806146;29;20371;-70
2020/12/24 00:04:29;;;;;;;9.50;6.15;;;;;;;18.86;58.62;100523.84;4806683;29;20035;-70
2020/12/24 00:06:54;;;;;;;9.32;6.32;;;;;;;18.86;58.55;100517.75;4806950;29;20086;-70
2020/12/24 00:09:20;;;;;;;12.73;6.38;;;;;;;18.83;58.59;100518.66;4772389;30;20487;-70
2020/12/24 00:11:45;;;;;;;8.73;6.10;;;;;;;18.82;58.22;100510.84;4799931;29;20031;-70
2020/12/24 00:14:10;;;;;;;9.18;6.15;;;;;;;18.84;58.23;100523.00;4805522;29;20046;-70
2020/12/24 00:16:36;;;;;;;7.53;5.00;;;;;;;18.80;58.38;100513.47;4805701;29;20070;-69
2020/12/24 00:19:01;;;;;;;11.10;7.07;;;;;;;18.83;58.35;100512.53;4789746;29;20035;-69
2020/12/24 00:21:27;;;;;;;12.73;6.57;;;;;;;18.83;58.54;100515.16;4803134;29;20609;-69
2020/12/24 00:23:52;;;;;;;8.07;5.20;;;;;;;18.82;58.38;100511.69;4807785;29;20038;-70
2020/12/24 00:26:17;;;;;;;7.55;5.00;;;;;;;18.82;58.58;100511.69;4807783;29;20034;-69
2020/12/24 00:28:43;;;;;;;10.18;6.80;;;;;;;18.82;58.40;100513.44;4802814;29;20081;-69
2020/12/24 00:31:08;;;;;;;11.73;5.72;;;;;;;18.82;58.36;100513.44;4800679;29;20080;-73
2020/12/24 00:33:34;;;;;;;8.40;5.50;;;;;;;18.78;58.48;100499.50;4805605;29;20125;-74
2020/12/24 00:36:00;;;;;;;10.15;6.45;;;;;;;18.80;58.40;100503.00;4805700;29;20103;-70
2020/12/24 00:38:25;;;;;;;9.77;5.93;;;;;;;18.78;58.29;100504.75;4805424;29;20042;-70
2020/12/24 00:40:51;;;;;;;10.60;5.75;;;;;;;18.80;58.38;100508.22;4804727;29;20041;-70
2020/12/24 00:43:16;;;;;;;9.35;5.25;;;;;;;18.74;58.34;100489.06;4805690;29;20445;-70
2020/12/24 00:45:41;;;;;;;10.00;6.72;;;;;;;18.75;58.18;100494.31;4804591;29;20041;-74
2020/12/24 00:48:07;;;;;;;9.15;5.53;;;;;;;18.78;58.24;100506.50;4790900;29;20039;-70
2020/12/24 00:50:32;;;;;;;9.18;5.78;;;;;;;18.76;58.35;100506.53;4787928;29;20121;-69
2020/12/24 00:52:58;;;;;;;9.35;4.88;;;;;;;18.78;58.35;100506.50;4801751;29;20483;-73
2020/12/24 00:55:26;;;;;;;10.10;5.22;;;;;;;18.77;58.29;100512.63;4806651;29;20035;-73
2020/12/24 00:57:51;;;;;;;6.93;4.50;;;;;;;18.74;58.41;100494.31;4799206;29;20070;-73
2020/12/24 01:00:17;;;;;;;8.23;4.80;;;;;;;18.76;58.11;100513.50;4790649;29;20077;-74
2020/12/24 01:02:42;;;;;;;8.23;5.10;;;;;;;18.74;58.17;100512.66;4805659;29;20039;-74
2020/12/24 01:05:08;;;;;;;7.22;4.85;;;;;;;18.73;58.14;100503.06;4802316;29;20027;-69
2020/12/24 01:07:34;;;;;;;9.60;4.97;;;;;;;18.73;58.27;100510.91;4795160;29;20106;-70
2020/12/24 01:09:59;;;;;;;5.93;3.95;;;;;;;18.74;58.24;100517.88;4804816;29;20034;-70
2020/12/24 01:12:24;;;;;;;6.70;4.57;;;;;;;18.74;58.19;100518.75;4803055;29;20478;-70
2020/12/24 01:14:50;;;;;;;7.22;4.70;;;;;;;18.71;58.20;100512.69;4789020;29;20038;-71
2020/12/24 01:17:15;;;;;;;6.72;4.30;;;;;;;18.71;58.27;100529.25;4805479;29;20027;-70
2020/12/24 01:19:40;;;;;;;6.40;4.15;;;;;;;18.72;58.22;100528.38;4804442;29;20556;-70
2020/12/24 01:22:06;;;;;;;7.40;4.38;;;;;;;18.70;58.35;100530.16;4789132;29;20118;-70
2020/12/24 01:24:31;;;;;;;9.73;4.80;;;;;;;18.72;58.40;100549.34;4790177;29;20039;-70
2020/12/24 01:26:57;;;;;;;7.90;4.03;;;;;;;18.69;58.10;100545.91;4783548;29;20026;-70
2020/12/24 01:29:22;;;;;;;7.60;4.82;;;;;;;18.69;58.10;100556.38;4788819;29;20077;-70
2020/12/24 01:31:49;;;;;;;8.02;4.22;;;;;;;18.71;58.25;100563.31;4787179;29;20035;-70
2020/12/24 01:34:16;;;;;;;10.55;5.28;;;;;;;18.71;58.09;100558.06;4805886;29;20035;-70
2020/12/24 01:36:41;;;;;;;6.82;3.83;;;;;;;18.68;58.30;100559.88;4805204;29;20059;-70
2020/12/24 01:39:07;;;;;;;7.00;3.70;;;;;;;18.67;58.33;100559.00;4789278;29;20470;-70
2020/12/24 01:41:33;;;;;;;7.15;4.25;;;;;;;18.68;57.70;100563.38;4803071;29;20051;-70
2020/12/24 01:43:58;;;;;;;7.80;5.28;;;;;;;18.67;58.24;100563.38;4788476;29;20035;-70
2020/12/24 01:46:25;;;;;;;7.80;3.78;;;;;;;18.66;58.18;100562.50;4770953;30;20108;-70
2020/12/24 01:48:50;;;;;;;7.03;4.00;;;;;;;18.68;58.14;100568.59;4803745;29;20022;-70
2020/12/24 01:51:24;;;;;;;6.10;3.92;;;;;;;18.66;58.13;100564.25;4804343;29;20121;-70
2020/12/24 01:53:49;;;;;;;4.60;3.35;;;;;;;18.66;57.97;100583.47;4805338;29;20526;-70
2020/12/24 01:56:15;;;;;;;5.07;3.10;;;;;;;18.69;58.09;100590.44;4818688;29;20122;-69
2020/12/24 01:58:40;;;;;;;5.43;3.42;;;;;;;18.67;57.88;100586.97;4804972;29;20107;-70
2020/12/24 02:01:06;;;;;;;4.95;3.25;;;;;;;18.60;57.95;100580.03;4805072;29;20058;-70
2020/12/24 02:03:31;;;;;;;6.22;3.70;;;;;;;18.63;57.89;100587.84;4805324;29;20035;-69
2020/12/24 02:05:57;;;;;;;6.40;3.20;;;;;;;18.64;57.81;100587.84;4818418;29;20035;-70
2020/12/24 02:08:23;;;;;;;5.75;2.72;;;;;;;18.64;57.80;100600.06;4805243;29;20041;-69
2020/12/24 02:10:48;;;;;;;5.72;3.38;;;;;;;18.62;57.89;100607.06;4804182;29;20035;-73
2020/12/24 02:13:13;;;;;;;5.63;3.15;;;;;;;18.63;57.87;100611.44;4805476;29;20038;-74
2020/12/24 02:15:39;;;;;;;6.07;3.50;;;;;;;18.62;57.88;100617.53;4797547;29;20498;-74
2020/12/24 02:18:04;;;;;;;6.70;3.83;;;;;;;18.62;57.78;100621.03;4806008;29;20498;-74
2020/12/24 02:20:30;;;;;;;6.18;3.45;;;;;;;18.59;57.89;100621.06;4805875;29;20106;-73
2020/12/24 02:22:55;;;;;;;5.68;3.05;;;;;;;18.60;57.75;100628.03;4804122;29;20034;-70
2020/12/24 02:25:21;;;;;;;4.85;3.22;;;;;;;18.59;57.77;100623.69;4773994;29;20391;-69
2020/12/24 02:27:46;;;;;;;4.90;3.10;;;;;;;18.57;57.62;100631.50;4773053;29;20035;-69
2020/12/24 02:30:11;;;;;;;6.57;3.45;;;;;;;18.58;57.76;100640.25;4804484;29;20046;-69
2020/12/24 02:32:37;;;;;;;5.60;3.58;;;;;;;18.56;57.62;100635.00;4803956;29;20046;-70
2020/12/24 02:35:03;;;;;;;3.88;2.60;;;;;;;18.59;57.83;100635.91;4805890;29;20050;-69
2020/12/24 02:37:28;;;;;;;4.43;3.10;;;;;;;18.60;57.41;100645.50;4804176;29;20057;-69
2020/12/24 02:39:54;;;;;;;6.70;3.80;;;;;;;18.56;57.53;100640.25;4805520;29;20487;-70
2020/12/24 02:42:19;;;;;;;6.22;3.67;;;;;;;18.59;57.26;100660.34;4803539;29;20039;-69
2020/12/24 02:44:45;;;;;;;4.93;3.15;;;;;;;18.57;57.31;100659.44;4804303;29;20049;-69
2020/12/24 02:47:10;;;;;;;5.82;2.60;;;;;;;18.57;57.05;100656.81;4804216;29;20042;-69
2020/12/24 02:49:36;;;;;;;4.30;2.40;;;;;;;18.54;57.51;100662.13;4803631;29;20043;-69
2020/12/24 02:52:01;;;;;;;4.13;2.53;;;;;;;18.53;57.34;100661.25;4804122;29;20110;-69
2020/12/24 02:54:27;;;;;;;4.93;3.17;;;;;;;18.56;57.21;100674.28;4803534;29;20080;-69
2020/12/24 02:56:52;;;;;;;4.55;2.40;;;;;;;18.54;57.46;100678.69;4805470;29;20514;-69
2020/12/24 02:59:17;;;;;;;3.10;2.15;;;;;;;18.55;57.10;100675.19;4777176;29;20133;-69
2020/12/24 03:01:43;;;;;;;4.85;2.47;;;;;;;18.55;57.16;100688.28;4821854;29;20419;-69
2020/12/24 03:04:08;;;;;;;3.95;2.50;;;;;;;18.54;57.13;100686.56;4808446;29;20392;-69
2020/12/24 03:06:33;;;;;;;4.07;2.33;;;;;;;18.54;56.98;100697.03;4805129;29;20462;-69
2020/12/24 03:08:59;;;;;;;3.90;3.03;;;;;;;18.52;56.93;100701.41;4807185;29;20117;-70
2020/12/24 03:11:24;;;;;;;3.67;2.30;;;;;;;18.52;57.04;100706.63;4807395;29;20039;-69
2020/12/24 03:13:49;;;;;;;4.35;2.35;;;;;;;18.52;57.06;100711.00;4807829;29;20031;-69
2020/12/24 03:16:15;;;;;;;4.30;2.22;;;;;;;18.50;56.95;100713.63;4788325;29;20066;-70
2020/12/24 03:18:41;;;;;;;3.15;1.92;;;;;;;18.51;56.86;100724.97;4806421;29;20092;-69
2020/12/24 03:21:07;;;;;;;4.70;2.35;;;;;;;18.50;56.89;100723.22;4808581;29;20494;-68
2020/12/24 03:23:32;;;;;;;3.08;1.75;;;;;;;18.50;56.90;100729.34;4807176;29;20042;-69
2020/12/24 03:25:58;;;;;;;3.80;2.50;;;;;;;18.46;56.57;100726.75;4790283;29;20035;-69
2020/12/24 03:28:23;;;;;;;5.20;2.33;;;;;;;18.49;56.83;100729.34;4775187;29;20038;-70
2020/12/24 03:30:49;;;;;;;3.28;2.10;;;;;;;18.43;56.78;100734.66;4805117;29;20027;-69
2020/12/24 03:33:14;;;;;;;2.38;1.85;;;;;;;18.41;56.89;100728.53;4806374;29;20035;-70
2020/12/24 03:35:39;;;;;;;5.07;1.95;;;;;;;18.47;56.85;100749.44;4805533;29;20058;-70
2020/12/24 03:38:05;;;;;;;6.20;2.03;;;;;;;18.45;56.67;100743.31;4807364;29;20129;-70
2020/12/24 03:40:30;;;;;;;3.38;2.17;;;;;;;18.44;56.57;100744.22;4806375;29;20070;-69
2020/12/24 03:42:56;;;;;;;2.75;1.70;;;;;;;18.46;56.52;100758.16;4806198;29;20062;-70
2020/12/24 03:45:21;;;;;;;3.05;2.05;;;;;;;18.45;56.46;100759.91;4807313;29;20096;-70
2020/12/24 03:47:46;;;;;;;2.75;1.85;;;;;;;18.45;56.57;100761.66;4805097;29;20394;-69
2020/12/24 03:50:12;;;;;;;3.20;1.75;;;;;;;18.44;56.51;100760.78;4791257;29;20103;-70
2020/12/24 03:52:37;;;;;;;3.75;2.00;;;;;;;18.39;56.56;100756.47;4805571;29;20031;-70
2020/12/24 03:55:03;;;;;;;2.80;1.60;;;;;;;18.41;56.70;100762.56;4807703;29;20035;-70
2020/12/24 03:57:28;;;;;;;3.90;2.10;;;;;;;18.40;56.46;100773.94;4805531;29;20031;-70
2020/12/24 03:59:54;;;;;;;4.32;2.20;;;;;;;18.39;56.53;100777.41;4790124;29;20054;-70
2020/12/24 04:02:19;;;;;;;2.72;1.48;;;;;;;18.40;56.43;100782.66;4821072;29;20038;-70
2020/12/24 04:04:45;;;;;;;3.33;1.83;;;;;;;18.38;56.43;100779.16;4820969;29;20047;-70
2020/12/24 04:07:10;;;;;;;2.50;1.67;;;;;;;18.39;56.23;100777.41;4820168;29;20394;-70
2020/12/24 04:09:35;;;;;;;3.05;1.60;;;;;;;18.38;56.34;100789.63;4806017;29;20034;-69
2020/12/24 04:12:01;;;;;;;3.00;1.85;;;;;;;18.39;56.30;100793.13;4806837;29;20031;-70
2020/12/24 04:14:26;;;;;;;3.05;1.77;;;;;;;18.38;56.10;100791.38;4805939;29;20406;-70
2020/12/24 04:16:52;;;;;;;3.22;1.88;;;;;;;18.38;56.19;100799.25;4802649;29;20031;-70
2020/12/24 04:19:17;;;;;;;3.45;1.80;;;;;;;18.37;56.22;100797.50;4799092;29;20042;-70
2020/12/24 04:21:42;;;;;;;2.50;1.42;;;;;;;18.37;56.33;100803.59;4807464;29;20039;-70
2020/12/24 04:24:08;;;;;;;2.85;1.33;;;;;;;18.37;56.16;100802.72;4807048;29;20038;-69
2020/12/24 04:26:33;;;;;;;2.47;1.40;;;;;;;18.35;56.20;100802.75;4805434;29;20034;-70
2020/12/24 04:28:58;;;;;;;2.67;1.42;;;;;;;18.36;55.77;100812.34;4790056;29;20472;-70
2020/12/24 04:31:24;;;;;;;2.92;1.58;;;;;;;18.36;56.09;100816.69;4776117;29;20032;-70
2020/12/24 04:33:49;;;;;;;2.90;2.22;;;;;;;18.35;55.89;100823.69;4805509;29;20039;-70
2020/12/24 04:36:15;;;;;;;2.35;1.50;;;;;;;18.35;56.01;100828.91;4805655;29;20063;-69
2020/12/24 04:38:42;;;;;;;2.70;1.48;;;;;;;18.32;56.04;100820.19;4806177;29;20115;-70
2020/12/24 04:41:08;;;;;;;2.35;1.33;;;;;;;18.31;56.10;100842.00;4804850;29;20100;-70
2020/12/24 04:43:33;;;;;;;2.58;1.48;;;;;;;18.34;55.96;100853.34;4806325;29;20368;-70
2020/12/24 04:46:00;;;;;;;4.72;1.83;;;;;;;18.31;55.97;100850.75;4790460;29;20146;-70
2020/12/24 04:48:25;;;;;;;2.28;1.35;;;;;;;18.30;56.00;100846.41;4819717;29;20390;-69
2020/12/24 04:50:53;;;;;;;3.40;1.98;;;;;;;18.33;56.16;100869.06;4805128;29;20039;-69
2020/12/24 04:53:19;;;;;;;3.13;1.40;;;;;;;18.31;56.14;100862.97;4805330;29;20438;-70
2020/12/24 04:55:45;;;;;;;3.00;1.63;;;;;;;18.31;56.25;100869.06;4806720;29;20087;-69
2020/12/24 04:58:11;;;;;;;1.65;1.00;;;;;;;18.31;55.79;100873.44;4804851;29;20464;-70
2020/12/24 05:00:41;;;;;;;3.17;1.38;;;;;;;18.31;56.32;100884.78;4805420;29;20081;-70
2020/12/24 05:03:11;;;;;;;2.20;1.20;;;;;;;18.31;55.73;100881.28;4805884;29;20034;-70
2020/12/24 05:05:38;;;;;;;2.33;1.38;;;;;;;18.30;55.73;100876.97;4803692;29;20050;-69
2020/12/24 05:08:08;;;;;;;2.75;1.40;;;;;;;18.30;55.75;100883.06;4789729;29;20038;-70
2020/12/24 05:10:36;;;;;;;2.42;1.30;;;;;;;18.28;55.83;100894.41;4806178;29;20065;-70
2020/12/24 05:13:18;;;;;;;1.95;1.20;;;;;;;18.28;55.78;100904.88;4804391;29;20027;-70
2020/12/24 05:15:44;;;;;;;2.27;1.13;;;;;;;18.30;55.88;100910.97;4780712;29;20118;-69
2020/12/24 05:18:15;;;;;;;2.13;1.45;;;;;;;18.27;55.77;100903.13;4806648;29;20058;-69
2020/12/24 05:20:41;;;;;;;2.10;1.00;;;;;;;18.27;55.65;100904.00;4817762;29;20447;-69
2020/12/24 05:23:15;;;;;;;2.05;1.10;;;;;;;18.27;55.81;100903.13;4771881;30;20070;-70
2020/12/24 05:25:41;;;;;;;;;;;;;;;18.26;55.77;100904.88;4792006;29;20553;-69
2020/12/24 05:28:07;;;;;;;1.83;1.00;;;;;;;18.26;55.72;100904.88;4804165;29;19917;-69
2020/12/24 05:30:33;;;;;;;1.33;0.85;;;;;;;18.22;55.80;100900.53;4803890;29;20095;-69
2020/12/24 05:33:00;;;;;;;1.63;1.00;;;;;;;18.25;55.61;100915.34;4788699;29;20035;-69
2020/12/24 05:35:27;;;;;;;2.72;1.30;;;;;;;18.25;55.80;100917.97;4805125;29;20041;-69
2020/12/24 05:37:53;;;;;;;2.33;1.38;;;;;;;18.21;55.72;100917.09;4804259;29;20035;-69
2020/12/24 05:40:27;;;;;;;2.13;1.15;;;;;;;18.22;55.76;100921.47;4805047;29;20375;-70
2020/12/24 05:42:52;;;;;;;3.17;1.58;;;;;;;18.24;55.54;100927.56;4805123;29;20031;-69
2020/12/24 05:45:20;;;;;;;1.95;1.05;;;;;;;18.23;55.70;100928.44;4806605;29;20026;-69
2020/12/24 05:47:46;;;;;;;1.90;1.10;;;;;;;18.23;55.45;100943.28;4806150;29;20038;-74
2020/12/24 05:50:24;;;;;;;1.95;1.08;;;;;;;18.17;55.61;100945.03;4806145;29;20043;-74
2020/12/24 05:53:06;;;;;;;1.65;0.73;;;;;;;18.20;55.64;100958.09;4805936;29;20451;-74
2020/12/24 05:55:33;;;;;;;1.73;1.00;;;;;;;18.20;55.67;100960.72;4806110;29;20039;-74
2020/12/24 05:57:59;;;;;;;1.90;0.93;;;;;;;18.23;55.55;100967.69;4806057;29;20038;-74
2020/12/24 06:00:36;;;;;;;2.35;0.90;;;;;;;18.21;55.66;100966.81;4804181;29;20055;-74
2020/12/24 06:03:08;;;;;;;1.90;1.27;;;;;;;18.18;55.81;100975.56;4804537;29;20058;-74
2020/12/24 06:05:52;;;;;;;1.98;1.10;;;;;;;18.19;55.55;100981.66;4805682;29;20023;-74
2020/12/24 06:08:22;;;;;;;1.52;1.00;;;;;;;18.20;55.63;100983.41;4805458;29;20070;-74
2020/12/24 06:11:01;;;;;;;1.83;1.00;;;;;;;18.19;55.55;100987.75;4805756;29;20050;-74
2020/12/24 06:13:41;;;;;;;1.48;0.80;;;;;;;18.19;55.74;100998.22;4805654;29;20039;-74
2020/12/24 06:16:11;;;;;;;2.65;0.90;;;;;;;18.19;55.41;101005.22;4792232;29;20035;-74
2020/12/24 06:18:46;;;;;;;2.05;1.00;;;;;;;18.16;55.51;101008.72;4806730;29;20095;-74
2020/12/24 06:21:18;;;;;;;1.73;0.90;;;;;;;18.17;55.49;101022.69;4808619;29;20448;-74
2020/12/24 06:23:53;;;;;;;1.95;0.70;;;;;;;18.18;55.48;101020.03;4802123;29;20121;-74
2020/12/24 06:26:26;;;;;;;2.67;0.90;;;;;;;18.18;55.56;101021.78;4805384;29;20456;-74
2020/12/24 06:28:55;;;;;;;1.50;1.00;;;;;;;18.18;55.35;101025.28;4805925;29;20127;-74
2020/12/24 06:31:22;;;;;;;2.03;0.93;;;;;;;18.16;55.57;101029.69;4806321;29;20070;-74
2020/12/24 06:33:47;;;;;;;1.83;1.05;;;;;;;18.15;55.32;101025.31;4809405;29;20038;-74
2020/12/24 06:36:32;;;;;;;1.25;0.95;;;;;;;18.13;55.64;101024.44;4809049;29;20027;-74
2020/12/24 06:38:58;;;;;;;1.95;0.90;;;;;;;18.15;55.29;101032.28;4808744;29;20030;-74
2020/12/24 06:41:37;;;;;;;2.00;1.05;;;;;;;18.14;55.45;101041.00;4807006;29;20053;-74
2020/12/24 06:44:08;;;;;;;1.40;0.70;;;;;;;18.15;55.53;101041.00;4809061;29;20031;-74
2020/12/24 06:46:55;;;;;;;1.15;0.75;;;;;;;18.15;55.49;101046.25;4808269;29;20084;-73
2020/12/24 06:49:33;;;;;;;1.42;0.73;;;;;;;18.12;55.28;101043.63;4808567;29;20036;-74
2020/12/24 06:51:59;;;;;;;1.67;0.98;;;;;;;18.13;55.48;101044.50;4806698;29;20038;-77
2020/12/24 06:54:26;;;;;;;1.83;1.35;;;;;;;18.14;55.64;101051.47;4807281;29;20047;-75
2020/12/24 06:57:25;;;;;;;4.32;0.90;;;;;;;18.25;55.25;101068.06;4808863;29;20042;-75
2020/12/24 07:00:17;;;;;;;1.92;1.00;;;;;;;18.41;55.45;101072.41;4808477;29;20495;-74
2020/12/24 07:02:44;;;;;;;7.25;1.40;;;;;;;18.44;55.59;101067.16;4808380;29;20045;-74
2020/12/24 07:05:40;;;;;;;4.50;1.27;;;;;;;18.45;55.58;101054.91;4811533;29;20130;-73
2020/12/24 07:08:07;;;;;;;3.15;1.00;;;;;;;18.50;55.39;101051.44;4809192;29;20115;-73
2020/12/24 07:10:44;;;;;;;4.70;1.50;;;;;;;18.55;55.57;101069.78;4808571;29;20041;-73
2020/12/24 07:13:28;;;;;;;3.38;1.80;;;;;;;18.54;55.45;101095.09;4808533;29;20026;-73
2020/12/24 07:15:53;;;;;;;2.20;1.55;;;;;;;18.59;55.61;101109.94;4807817;29;20062;-73
2020/12/24 07:18:21;;;;;;;2.15;1.02;;;;;;;18.66;55.38;101107.31;4822263;29;20073;-73
2020/12/24 07:20:50;;;;;;;4.07;1.40;;;;;;;18.65;55.63;101112.56;4806116;29;20088;-73
2020/12/24 07:23:27;;;;;;;5.28;1.20;;;;;;;18.62;55.56;101115.19;4815322;29;20053;-73
2020/12/24 07:25:53;;;;;;;3.45;1.98;;;;;;;18.68;55.26;101113.44;4814163;29;20030;-74
2020/12/24 07:28:19;;;;;;;4.32;1.40;;;;;;;18.69;55.51;101109.06;4816429;29;20034;-73
2020/12/24 07:30:55;;;;;;;5.05;1.10;;;;;;;18.66;55.73;101112.56;4801452;29;20502;-73
2020/12/24 07:33:20;;;;;;;2.95;1.63;;;;;;;18.70;55.55;101109.03;4792374;29;20035;-73
2020/12/24 07:35:46;;;;;;;3.55;0.90;;;;;;;18.76;55.35;101106.44;4812524;29;20039;-73
2020/12/24 07:38:11;;;;;;;2.72;1.15;;;;;;;18.73;55.44;101108.19;4814940;29;20370;-73
2020/12/24 07:40:36;;;;;;;2.97;1.00;;;;;;;18.69;55.58;101115.19;4819630;29;20045;-73
2020/12/24 07:43:10;;;;;;;1.90;0.90;;;;;;;18.75;55.57;101123.03;4808286;29;20066;-73
2020/12/24 07:45:35;;;;;;;2.67;1.92;;;;;;;18.79;55.33;101137.00;4818391;29;20386;-73
2020/12/24 07:48:00;;;;;;;2.25;0.98;;;;;;;18.72;55.28;101136.13;4809710;29;20047;-70
2020/12/24 07:50:31;;;;;;;2.05;1.17;;;;;;;18.80;55.38;101151.84;4806924;29;20382;-70
2020/12/24 07:52:56;;;;;;;1.17;0.70;;;;;;;18.81;55.30;101164.94;4803884;29;20133;-74
2020/12/24 07:55:21;;;;;;;3.20;1.10;;;;;;;18.78;55.35;101174.56;4806306;29;20130;-74
2020/12/24 07:57:47;;;;;;;2.53;0.90;;;;;;;18.79;55.11;101178.91;4818019;29;20039;-73
2020/12/24 08:00:12;;;;;;;2.53;1.20;;;;;;;18.87;55.11;101179.78;4809348;29;20471;-73
2020/12/24 08:02:37;;;;;;;1.60;0.93;;;;;;;18.82;55.22;101171.94;4805966;29;20064;-77
2020/12/24 08:05:03;;;;;;;2.28;0.90;;;;;;;18.77;55.53;101181.53;4806312;29;20363;-73
2020/12/24 08:07:29;;;;;;;1.77;0.80;;;;;;;18.87;55.21;101182.41;4818192;29;20035;-74
2020/12/24 08:10:08;;;;;;;2.08;0.80;;;;;;;18.85;55.12;101190.25;4811510;29;20067;-73
2020/12/24 08:12:34;;;;;;;5.63;1.35;;;;;;;18.81;55.23;101199.00;4811345;29;20027;-73
2020/12/24 08:15:14;;;;;;;1.58;0.70;;;;;;;18.87;55.25;101198.13;4808734;29;20038;-73
2020/12/24 08:17:48;;;;;;;2.20;1.20;;;;;;;18.87;55.09;101199.00;4810621;29;20038;-73
2020/12/24 08:20:16;;;;;;;1.50;0.80;;;;;;;18.80;54.99;101201.63;4809638;29;20027;-73
2020/12/24 08:23:00;;;;;;;1.40;0.77;;;;;;;18.88;55.15;101216.47;4818635;29;20035;-73
2020/12/24 08:25:27;;;;;;;1.90;0.95;;;;;;;18.88;55.11;101215.59;4815677;29;20018;-73
2020/12/24 08:27:53;;;;;;;3.08;1.10;;;;;;;18.84;55.11;101212.09;4795936;29;20059;-73
2020/12/24 08:30:19;;;;;;;2.05;0.75;;;;;;;18.85;55.25;101213.84;4811877;29;20037;-73
2020/12/24 08:32:45;;;;;;;2.38;0.90;;;;;;;18.91;55.20;101212.97;4812496;29;20039;-77
2020/12/24 08:35:12;;;;;;;2.33;1.05;;;;;;;18.92;55.18;101212.09;4820674;29;20107;-77
2020/12/24 08:37:38;;;;;;;1.55;0.73;;;;;;;18.90;55.24;101216.47;4805749;29;20111;-72
2020/12/24 08:40:26;;;;;;;2.40;1.10;;;;;;;18.99;54.99;101237.41;4803749;29;20076;-72
2020/12/24 08:42:52;;;;;;;3.05;1.02;;;;;;;18.96;55.08;101233.91;4793140;29;20117;-72
2020/12/24 08:45:18;;;;;;;2.38;0.88;;;;;;;18.94;55.10;101239.19;4812833;29;20030;-73
2020/12/24 08:47:43;;;;;;;0.85;0.60;;;;;;;18.99;54.97;101236.53;4825480;29;20383;-72
2020/12/24 08:50:09;;;;;;;1.77;0.80;;;;;;;19.09;54.82;101240.91;4792632;29;20440;-72
2020/12/24 08:52:37;;;;;;;2.40;0.98;;;;;;;19.10;54.71;101240.03;4805069;29;20083;-74
2020/12/24 08:55:07;;;;;;;2.33;0.90;;;;;;;19.07;54.66;101246.16;4793103;29;20045;-72
2020/12/24 08:57:34;;;;;;;2.42;0.77;;;;;;;19.11;54.77;101247.00;4805530;29;20057;-72
2020/12/24 09:00:02;;;;;;;1.40;0.75;;;;;;;19.17;54.59;101257.50;4804960;29;20115;-72
2020/12/24 09:02:35;;;;;;;1.35;0.80;;;;;;;19.13;54.60;101263.63;4804838;29;20483;-72
2020/12/24 09:05:02;;;;;;;1.15;0.80;;;;;;;19.13;54.58;101261.00;4802429;29;20164;-72
2020/12/24 09:07:34;;;;;;;1.17;0.80;;;;;;;19.17;54.35;101270.63;4802348;29;20035;-72
2020/12/24 09:10:05;;;;;;;3.20;1.08;;;;;;;19.14;54.50;101268.88;4803403;29;20043;-72
2020/12/24 09:12:31;;;;;;;1.88;0.85;;;;;;;19.10;54.82;101269.72;4804870;29;20038;-73
2020/12/24 09:15:03;;;;;;;1.88;0.80;;;;;;;19.17;54.47;101279.34;4774292;29;20045;-73
2020/12/24 09:17:28;;;;;;;5.22;1.23;;;;;;;19.14;54.36;101273.22;4808382;29;20023;-73
2020/12/24 09:20:04;;;;;;;3.22;0.80;;;;;;;19.14;54.52;101295.09;4811252;29;20036;-73
2020/12/24 09:22:30;;;;;;;2.75;1.08;;;;;;;19.21;54.43;101293.34;4801628;29;20085;-73
2020/12/24 09:24:55;;;;;;;3.70;1.00;;;;;;;19.19;54.46;101293.34;4805738;29;20030;-72
2020/12/24 09:27:21;;;;;;;1.67;0.80;;;;;;;19.16;54.39;101301.19;4806363;29;20047;-72
2020/12/24 09:29:46;;;;;;;1.77;0.95;;;;;;;19.16;54.47;101303.81;4814200;29;20161;-72
2020/12/24 09:32:12;;;;;;;5.32;1.10;;;;;;;19.20;54.26;101305.56;4807815;29;20027;-73
2020/12/24 09:34:38;;;;;;;4.20;0.80;;;;;;;19.18;54.53;101315.19;4793327;29;20034;-73
2020/12/24 09:37:03;;;;;;;2.45;1.10;;;;;;;19.23;54.10;101323.91;4814339;29;20034;-72
2020/12/24 09:39:28;;;;;;;2.70;1.23;;;;;;;19.25;54.14;101331.78;4786586;30;20047;-73
2020/12/24 09:41:54;;;;;;;1.17;0.52;;;;;;;19.22;54.34;101324.78;4786824;29;20053;-72
2020/12/24 09:44:19;;;;;;;2.63;1.08;;;;;;;19.24;54.27;101330.91;4797619;29;20103;-73
2020/12/24 09:46:47;;;;;;;1.70;0.75;;;;;;;19.30;54.15;101337.91;4797618;29;20043;-72
2020/12/24 09:49:13;;;;;;;1.50;0.70;;;;;;;19.28;54.12;101350.13;4803488;29;20498;-72
2020/12/24 09:51:39;;;;;;;1.35;0.80;;;;;;;19.24;54.34;101351.00;4817892;29;20482;-72
2020/12/24 09:54:05;;;;;;;3.05;1.10;;;;;;;19.19;53.78;101358.88;4783900;29;20041;-74
2020/12/24 09:56:31;;;;;;;3.60;1.55;;;;;;;19.22;52.65;101360.59;4804752;29;20041;-72
2020/12/24 09:58:57;;;;;;;4.20;1.63;;;;;;;19.20;53.18;101357.13;4808123;29;20054;-70
2020/12/24 10:01:22;;;;;;;2.67;0.98;;;;;;;19.12;53.15;101354.50;4807358;29;20034;-72
2020/12/24 10:03:48;;;;;;;2.08;0.93;;;;;;;19.22;53.18;101364.09;4804404;29;20039;-72
2020/12/24 10:06:13;;;;;;;8.90;1.40;;;;;;;19.26;53.22;101365.00;4800683;29;20050;-69
2020/12/24 10:08:39;;;;;;;6.70;1.73;;;;;;;19.23;53.39;101365.84;4807866;29;20059;-70
2020/12/24 10:11:04;;;;;;;4.13;1.17;;;;;;;19.28;53.39;101366.75;4788858;29;20046;-69
2020/12/24 10:13:29;;;;;;;2.05;0.93;;;;;;;19.31;53.39;101367.63;4807317;29;20456;-69
2020/12/24 10:15:55;;;;;;;3.70;0.80;;;;;;;19.27;53.51;101358.88;4810067;29;20035;-69
2020/12/24 10:18:21;;;;;;;5.03;1.02;;;;;;;19.27;53.57;101365.00;4806656;29;20026;-70
2020/12/24 10:20:47;;;;;;;1.83;1.00;;;;;;;19.33;53.37;101363.25;4798772;29;20386;-71
2020/12/24 10:23:12;;;;;;;2.60;1.10;;;;;;;19.33;53.44;101376.38;4797434;29;20042;-69
2020/12/24 10:25:39;;;;;;;5.00;1.88;;;;;;;19.31;53.75;101379.00;4811926;29;20031;-69
2020/12/24 10:28:05;;;;;;;8.30;1.90;;;;;;;19.33;53.61;101376.38;4807109;29;20121;-70
2020/12/24 10:30:31;;;;;;;2.05;1.08;;;;;;;19.35;53.55;101380.72;4806372;29;20412;-69
2020/12/24 10:32:56;;;;;;;2.00;1.05;;;;;;;19.34;53.86;101380.75;4807161;29;20046;-69
2020/12/24 10:35:21;;;;;;;5.68;1.58;;;;;;;19.39;53.50;101374.59;4807118;29;20035;-69
2020/12/24 10:37:47;;;;;;;1.10;0.68;;;;;;;19.38;53.85;101385.97;4808208;29;20121;-69
2020/12/24 10:40:12;;;;;;;2.17;0.80;;;;;;;19.36;53.82;101376.34;4816419;29;20479;-68
2020/12/24 10:42:40;;;;;;;1.38;0.82;;;;;;;19.40;53.77;101378.09;4811372;29;20026;-68
2020/12/24 10:45:06;;;;;;;2.28;0.77;;;;;;;19.41;53.44;101370.25;4808889;29;20485;-69
2020/12/24 10:47:31;;;;;;;2.05;0.98;;;;;;;19.37;53.74;101376.34;4763254;29;20037;-70
2020/12/24 10:49:58;;;;;;;2.47;1.00;;;;;;;19.45;53.63;101384.25;4806309;29;20039;-69
2020/12/24 10:52:23;;;;;;;2.70;0.90;;;;;;;19.42;53.45;101379.84;4809367;29;20042;-69
2020/12/24 10:54:49;;;;;;;3.95;0.80;;;;;;;19.41;53.78;101377.22;4809786;29;20035;-70
2020/12/24 10:57:14;;;;;;;2.03;1.10;;;;;;;19.43;53.96;101383.34;4809699;29;20084;-69
2020/12/24 10:59:41;;;;;;;2.83;1.05;;;;;;;19.45;53.75;101379.88;4806898;29;20054;-69
2020/12/24 11:02:07;;;;;;;1.98;0.80;;;;;;;19.45;53.89;101372.00;4808527;29;20043;-70
2020/12/24 11:04:32;;;;;;;1.83;0.85;;;;;;;19.43;53.93;101381.59;4775575;29;20039;-71
2020/12/24 11:06:58;;;;;;;5.18;1.27;;;;;;;19.59;53.72;101395.63;4807492;29;20482;-66
2020/12/24 11:09:23;;;;;;;5.72;1.30;;;;;;;19.51;54.01;101379.88;4820788;29;20039;-68
2020/12/24 11:11:49;;;;;;;3.92;1.33;;;;;;;19.59;54.13;101393.00;4791413;29;20042;-65
2020/12/24 11:14:14;;;;;;;2.88;1.10;;;;;;;19.70;53.88;101400.88;4804915;29;20083;-67
2020/12/24 11:16:41;;;;;;;2.60;1.20;;;;;;;19.67;54.21;101399.09;4805831;29;20035;-67
2020/12/24 11:19:09;;;;;;;5.40;1.83;;;;;;;19.61;54.27;101391.22;4806915;29;20038;-71
2020/12/24 11:21:35;;;;;;;3.15;1.42;;;;;;;19.67;53.96;101398.22;4807461;29;20046;-66
2020/12/24 11:24:07;;;;;;;5.28;1.67;;;;;;;19.68;53.86;101397.38;4806912;29;20048;-67
2020/12/24 11:26:34;;;;;;;2.77;1.50;;;;;;;19.63;53.98;101406.09;4802716;29;20048;-68